sensor_id;sensor_type;location;lat;lon;timestamp;P1;durP1;ratioP1;P2;durP2;ratioP2
54881;SDS011;40775;51.448;4.742;2023-04-15T00:00:55;4.32;;;1.90;;
54881;SDS011;40775;51.448;4.742;2023-04-15T00:03:23;4.13;;;2.17;;
54881;SDS011;40775;51.448;4.742;2023-04-15T00:05:51;3.25;;;2.03;;
54881;SDS011;40775;51.448;4.742;2023-04-15T00:08:18;5.68;;;2.20;;
54881;SDS011;40775;51.448;4.742;2023-04-15T00:10:45;6.45;;;2.05;;
54881;SDS011;40775;51.448;4.742;2023-04-15T00:13:13;8.15;;;2.35;;
54881;SDS011;40775;51.448;4.742;2023-04-15T00:15:40;3.90;;;2.17;;
54881;SDS011;40775;51.448;4.742;2023-04-15T00:18:08;4.13;;;1.98;;
54881;SDS011;40775;51.448;4.742;2023-04-15T00:20:35;4.57;;;2.22;;
54881;SDS011;40775;51.448;4.742;2023-04-15T00:23:02;4.72;;;2.20;;
54881;SDS011;40775;51.448;4.742;2023-04-15T00:25:30;4.10;;;1.75;;
54881;SDS011;40775;51.448;4.742;2023-04-15T00:27:58;8.65;;;2.15;;
54881;SDS011;40775;51.448;4.742;2023-04-15T00:30:25;5.10;;;2.13;;
54881;SDS011;40775;51.448;4.742;2023-04-15T00:32:52;4.40;;;1.92;;
54881;SDS011;40775;51.448;4.742;2023-04-15T00:35:19;5.80;;;2.03;;
54881;SDS011;40775;51.448;4.742;2023-04-15T00:37:46;4.55;;;2.00;;
54881;SDS011;40775;51.448;4.742;2023-04-15T00:40:13;4.82;;;2.00;;
54881;SDS011;40775;51.448;4.742;2023-04-15T00:42:44;4.18;;;1.95;;
54881;SDS011;40775;51.448;4.742;2023-04-15T00:45:12;4.95;;;2.10;;
54881;SDS011;40775;51.448;4.742;2023-04-15T00:47:40;5.88;;;2.08;;
54881;SDS011;40775;51.448;4.742;2023-04-15T00:50:08;4.60;;;2.33;;
54881;SDS011;40775;51.448;4.742;2023-04-15T00:52:38;4.90;;;2.05;;
54881;SDS011;40775;51.448;4.742;2023-04-15T00:55:06;3.33;;;1.90;;
54881;SDS011;40775;51.448;4.742;2023-04-15T00:57:34;6.78;;;2.10;;
54881;SDS011;40775;51.448;4.742;2023-04-15T01:00:01;6.82;;;2.05;;
54881;SDS011;40775;51.448;4.742;2023-04-15T01:02:30;7.15;;;2.25;;
54881;SDS011;40775;51.448;4.742;2023-04-15T01:04:58;3.38;;;1.88;;
54881;SDS011;40775;51.448;4.742;2023-04-15T01:07:26;4.68;;;1.75;;
54881;SDS011;40775;51.448;4.742;2023-04-15T01:09:53;3.92;;;2.22;;
54881;SDS011;40775;51.448;4.742;2023-04-15T01:12:20;5.00;;;2.15;;
54881;SDS011;40775;51.448;4.742;2023-04-15T01:14:48;3.88;;;2.10;;
54881;SDS011;40775;51.448;4.742;2023-04-15T01:17:15;3.63;;;2.17;;
54881;SDS011;40775;51.448;4.742;2023-04-15T01:19:42;4.82;;;2.40;;
54881;SDS011;40775;51.448;4.742;2023-04-15T01:22:09;5.00;;;2.33;;
54881;SDS011;40775;51.448;4.742;2023-04-15T01:24:36;4.22;;;1.88;;
54881;SDS011;40775;51.448;4.742;2023-04-15T01:27:04;3.95;;;2.15;;
54881;SDS011;40775;51.448;4.742;2023-04-15T01:29:32;4.05;;;2.20;;
54881;SDS011;40775;51.448;4.742;2023-04-15T01:32:03;4.10;;;2.22;;
54881;SDS011;40775;51.448;4.742;2023-04-15T01:34:31;5.35;;;2.45;;
54881;SDS011;40775;51.448;4.742;2023-04-15T01:37:00;4.72;;;2.42;;
54881;SDS011;40775;51.448;4.742;2023-04-15T01:39:27;4.72;;;2.13;;
54881;SDS011;40775;51.448;4.742;2023-04-15T01:41:54;4.63;;;2.17;;
54881;SDS011;40775;51.448;4.742;2023-04-15T01:44:22;4.97;;;2.05;;
54881;SDS011;40775;51.448;4.742;2023-04-15T01:46:49;5.30;;;2.72;;
54881;SDS011;40775;51.448;4.742;2023-04-15T01:49:16;4.15;;;2.03;;
54881;SDS011;40775;51.448;4.742;2023-04-15T01:51:44;4.28;;;1.92;;
54881;SDS011;40775;51.448;4.742;2023-04-15T01:54:11;7.60;;;2.38;;
54881;SDS011;40775;51.448;4.742;2023-04-15T01:56:38;4.53;;;2.15;;
54881;SDS011;40775;51.448;4.742;2023-04-15T01:59:05;3.85;;;2.17;;
54881;SDS011;40775;51.448;4.742;2023-04-15T02:01:32;4.78;;;1.88;;
54881;SDS011;40775;51.448;4.742;2023-04-15T02:03:59;4.53;;;2.33;;
54881;SDS011;40775;51.448;4.742;2023-04-15T02:06:27;6.30;;;2.47;;
54881;SDS011;40775;51.448;4.742;2023-04-15T02:08:53;4.50;;;2.10;;
54881;SDS011;40775;51.448;4.742;2023-04-15T02:11:20;4.65;;;2.10;;
54881;SDS011;40775;51.448;4.742;2023-04-15T02:13:48;4.28;;;2.03;;
54881;SDS011;40775;51.448;4.742;2023-04-15T02:16:16;4.65;;;2.33;;
54881;SDS011;40775;51.448;4.742;2023-04-15T02:18:45;5.88;;;2.55;;
54881;SDS011;40775;51.448;4.742;2023-04-15T02:21:12;4.75;;;2.40;;
54881;SDS011;40775;51.448;4.742;2023-04-15T02:23:40;6.47;;;2.35;;
54881;SDS011;40775;51.448;4.742;2023-04-15T02:26:07;5.18;;;2.03;;
54881;SDS011;40775;51.448;4.742;2023-04-15T02:28:33;3.95;;;2.08;;
54881;SDS011;40775;51.448;4.742;2023-04-15T02:31:04;5.18;;;2.33;;
54881;SDS011;40775;51.448;4.742;2023-04-15T02:33:32;4.85;;;2.03;;
54881;SDS011;40775;51.448;4.742;2023-04-15T02:35:59;5.18;;;2.20;;
54881;SDS011;40775;51.448;4.742;2023-04-15T02:38:26;5.03;;;2.40;;
54881;SDS011;40775;51.448;4.742;2023-04-15T02:40:53;5.30;;;2.47;;
54881;SDS011;40775;51.448;4.742;2023-04-15T02:43:20;4.45;;;2.10;;
54881;SDS011;40775;51.448;4.742;2023-04-15T02:45:48;6.22;;;2.40;;
54881;SDS011;40775;51.448;4.742;2023-04-15T02:48:15;5.22;;;2.22;;
54881;SDS011;40775;51.448;4.742;2023-04-15T02:50:45;4.53;;;2.38;;
54881;SDS011;40775;51.448;4.742;2023-04-15T02:53:13;5.90;;;2.60;;
54881;SDS011;40775;51.448;4.742;2023-04-15T02:55:40;5.60;;;2.60;;
54881;SDS011;40775;51.448;4.742;2023-04-15T02:58:08;4.68;;;2.47;;
54881;SDS011;40775;51.448;4.742;2023-04-15T03:00:35;6.55;;;2.63;;
54881;SDS011;40775;51.448;4.742;2023-04-15T03:03:03;5.93;;;2.92;;
54881;SDS011;40775;51.448;4.742;2023-04-15T03:05:31;7.13;;;2.50;;
54881;SDS011;40775;51.448;4.742;2023-04-15T03:07:58;6.05;;;2.30;;
54881;SDS011;40775;51.448;4.742;2023-04-15T03:10:26;7.35;;;2.80;;
54881;SDS011;40775;51.448;4.742;2023-04-15T03:12:53;5.47;;;2.50;;
54881;SDS011;40775;51.448;4.742;2023-04-15T03:15:20;5.55;;;2.30;;
54881;SDS011;40775;51.448;4.742;2023-04-15T03:17:48;4.22;;;2.17;;
54881;SDS011;40775;51.448;4.742;2023-04-15T03:20:15;4.93;;;2.60;;
54881;SDS011;40775;51.448;4.742;2023-04-15T03:22:42;5.18;;;2.33;;
54881;SDS011;40775;51.448;4.742;2023-04-15T03:25:09;7.57;;;2.83;;
54881;SDS011;40775;51.448;4.742;2023-04-15T03:27:37;5.85;;;2.42;;
54881;SDS011;40775;51.448;4.742;2023-04-15T03:30:04;4.20;;;2.50;;
54881;SDS011;40775;51.448;4.742;2023-04-15T03:32:33;7.25;;;3.05;;
54881;SDS011;40775;51.448;4.742;2023-04-15T03:35:00;5.40;;;3.20;;
54881;SDS011;40775;51.448;4.742;2023-04-15T03:37:27;4.40;;;2.33;;
54881;SDS011;40775;51.448;4.742;2023-04-15T03:39:54;4.25;;;2.53;;
54881;SDS011;40775;51.448;4.742;2023-04-15T03:42:21;4.82;;;2.35;;
54881;SDS011;40775;51.448;4.742;2023-04-15T03:44:48;5.18;;;3.13;;
54881;SDS011;40775;51.448;4.742;2023-04-15T03:47:15;5.45;;;2.55;;
54881;SDS011;40775;51.448;4.742;2023-04-15T03:49:42;5.18;;;2.60;;
54881;SDS011;40775;51.448;4.742;2023-04-15T03:52:09;7.18;;;3.53;;
54881;SDS011;40775;51.448;4.742;2023-04-15T03:54:36;6.10;;;3.20;;
54881;SDS011;40775;51.448;4.742;2023-04-15T03:57:03;9.00;;;3.40;;
54881;SDS011;40775;51.448;4.742;2023-04-15T03:59:30;8.18;;;3.28;;
54881;SDS011;40775;51.448;4.742;2023-04-15T04:01:58;7.43;;;3.30;;
54881;SDS011;40775;51.448;4.742;2023-04-15T04:04:25;14.43;;;3.03;;
54881;SDS011;40775;51.448;4.742;2023-04-15T04:06:52;9.20;;;3.15;;
54881;SDS011;40775;51.448;4.742;2023-04-15T04:09:19;6.30;;;3.40;;
54881;SDS011;40775;51.448;4.742;2023-04-15T04:11:46;6.78;;;3.38;;
54881;SDS011;40775;51.448;4.742;2023-04-15T04:14:13;7.10;;;3.63;;
54881;SDS011;40775;51.448;4.742;2023-04-15T04:16:41;6.30;;;3.10;;
54881;SDS011;40775;51.448;4.742;2023-04-15T04:19:08;7.22;;;3.50;;
54881;SDS011;40775;51.448;4.742;2023-04-15T04:21:35;9.25;;;3.85;;
54881;SDS011;40775;51.448;4.742;2023-04-15T04:24:02;9.10;;;3.40;;
54881;SDS011;40775;51.448;4.742;2023-04-15T04:26:29;5.38;;;3.22;;
54881;SDS011;40775;51.448;4.742;2023-04-15T04:28:56;9.25;;;3.70;;
54881;SDS011;40775;51.448;4.742;2023-04-15T04:31:23;5.40;;;3.55;;
54881;SDS011;40775;51.448;4.742;2023-04-15T04:33:50;7.13;;;3.13;;
54881;SDS011;40775;51.448;4.742;2023-04-15T04:36:17;6.35;;;3.50;;
54881;SDS011;40775;51.448;4.742;2023-04-15T04:38:44;6.95;;;3.25;;
54881;SDS011;40775;51.448;4.742;2023-04-15T04:41:11;5.97;;;3.28;;
54881;SDS011;40775;51.448;4.742;2023-04-15T04:43:38;5.65;;;3.42;;
54881;SDS011;40775;51.448;4.742;2023-04-15T04:46:05;6.63;;;3.40;;
54881;SDS011;40775;51.448;4.742;2023-04-15T04:48:33;7.95;;;3.55;;
54881;SDS011;40775;51.448;4.742;2023-04-15T04:51:00;7.07;;;3.30;;
54881;SDS011;40775;51.448;4.742;2023-04-15T04:53:27;6.13;;;3.20;;
54881;SDS011;40775;51.448;4.742;2023-04-15T04:55:55;5.72;;;3.28;;
54881;SDS011;40775;51.448;4.742;2023-04-15T04:58:22;7.25;;;3.15;;
54881;SDS011;40775;51.448;4.742;2023-04-15T05:00:49;5.65;;;3.13;;
54881;SDS011;40775;51.448;4.742;2023-04-15T05:03:17;6.78;;;3.08;;
54881;SDS011;40775;51.448;4.742;2023-04-15T05:05:44;8.32;;;3.38;;
54881;SDS011;40775;51.448;4.742;2023-04-15T05:08:12;4.38;;;2.78;;
54881;SDS011;40775;51.448;4.742;2023-04-15T05:10:43;5.80;;;3.25;;
54881;SDS011;40775;51.448;4.742;2023-04-15T05:13:10;7.75;;;3.45;;
54881;SDS011;40775;51.448;4.742;2023-04-15T05:15:38;8.02;;;4.00;;
54881;SDS011;40775;51.448;4.742;2023-04-15T05:18:07;4.45;;;3.15;;
54881;SDS011;40775;51.448;4.742;2023-04-15T05:20:35;6.18;;;3.28;;
54881;SDS011;40775;51.448;4.742;2023-04-15T05:23:02;6.03;;;3.47;;
54881;SDS011;40775;51.448;4.742;2023-04-15T05:25:29;6.70;;;3.13;;
54881;SDS011;40775;51.448;4.742;2023-04-15T05:27:56;7.00;;;4.07;;
54881;SDS011;40775;51.448;4.742;2023-04-15T05:30:23;5.93;;;3.47;;
54881;SDS011;40775;51.448;4.742;2023-04-15T05:32:50;6.35;;;3.10;;
54881;SDS011;40775;51.448;4.742;2023-04-15T05:35:17;5.38;;;3.25;;
54881;SDS011;40775;51.448;4.742;2023-04-15T05:37:44;5.50;;;2.80;;
54881;SDS011;40775;51.448;4.742;2023-04-15T05:40:11;8.00;;;2.90;;
54881;SDS011;40775;51.448;4.742;2023-04-15T05:42:39;4.95;;;2.65;;
54881;SDS011;40775;51.448;4.742;2023-04-15T05:45:06;7.22;;;3.13;;
54881;SDS011;40775;51.448;4.742;2023-04-15T05:47:34;7.35;;;2.70;;
54881;SDS011;40775;51.448;4.742;2023-04-15T05:50:03;10.65;;;3.75;;
54881;SDS011;40775;51.448;4.742;2023-04-15T05:52:30;5.90;;;3.20;;
54881;SDS011;40775;51.448;4.742;2023-04-15T05:54:57;6.60;;;3.70;;
54881;SDS011;40775;51.448;4.742;2023-04-15T05:57:24;6.15;;;2.65;;
54881;SDS011;40775;51.448;4.742;2023-04-15T05:59:51;8.27;;;3.65;;
54881;SDS011;40775;51.448;4.742;2023-04-15T06:02:19;5.22;;;2.70;;
54881;SDS011;40775;51.448;4.742;2023-04-15T06:04:46;6.38;;;3.20;;
54881;SDS011;40775;51.448;4.742;2023-04-15T06:07:13;5.40;;;3.47;;
54881;SDS011;40775;51.448;4.742;2023-04-15T06:09:40;6.07;;;3.20;;
54881;SDS011;40775;51.448;4.742;2023-04-15T06:12:08;6.10;;;3.30;;
54881;SDS011;40775;51.448;4.742;2023-04-15T06:14:38;5.45;;;2.95;;
54881;SDS011;40775;51.448;4.742;2023-04-15T06:17:06;5.80;;;3.15;;
54881;SDS011;40775;51.448;4.742;2023-04-15T06:19:34;5.82;;;2.95;;
54881;SDS011;40775;51.448;4.742;2023-04-15T06:22:04;7.10;;;3.17;;
54881;SDS011;40775;51.448;4.742;2023-04-15T06:24:32;6.15;;;3.30;;
54881;SDS011;40775;51.448;4.742;2023-04-15T06:26:59;7.72;;;2.83;;
54881;SDS011;40775;51.448;4.742;2023-04-15T06:29:27;5.82;;;2.95;;
54881;SDS011;40775;51.448;4.742;2023-04-15T06:31:54;7.80;;;3.88;;
54881;SDS011;40775;51.448;4.742;2023-04-15T06:34:22;5.30;;;2.50;;
54881;SDS011;40775;51.448;4.742;2023-04-15T06:36:49;7.88;;;3.30;;
54881;SDS011;40775;51.448;4.742;2023-04-15T06:39:16;6.72;;;3.28;;
54881;SDS011;40775;51.448;4.742;2023-04-15T06:41:43;6.90;;;3.65;;
54881;SDS011;40775;51.448;4.742;2023-04-15T06:44:10;6.00;;;3.33;;
54881;SDS011;40775;51.448;4.742;2023-04-15T06:46:37;8.65;;;3.72;;
54881;SDS011;40775;51.448;4.742;2023-04-15T06:49:06;8.45;;;3.58;;
54881;SDS011;40775;51.448;4.742;2023-04-15T06:51:33;6.65;;;3.47;;
54881;SDS011;40775;51.448;4.742;2023-04-15T06:54:01;7.53;;;3.83;;
54881;SDS011;40775;51.448;4.742;2023-04-15T06:56:32;5.22;;;2.80;;
54881;SDS011;40775;51.448;4.742;2023-04-15T06:58:59;8.45;;;3.70;;
54881;SDS011;40775;51.448;4.742;2023-04-15T07:01:27;4.95;;;2.92;;
54881;SDS011;40775;51.448;4.742;2023-04-15T07:03:54;5.72;;;2.75;;
54881;SDS011;40775;51.448;4.742;2023-04-15T07:06:21;4.63;;;2.88;;
54881;SDS011;40775;51.448;4.742;2023-04-15T07:08:48;6.55;;;3.22;;
54881;SDS011;40775;51.448;4.742;2023-04-15T07:11:15;7.05;;;3.10;;
54881;SDS011;40775;51.448;4.742;2023-04-15T07:13:42;4.82;;;2.60;;
54881;SDS011;40775;51.448;4.742;2023-04-15T07:16:09;4.97;;;2.20;;
54881;SDS011;40775;51.448;4.742;2023-04-15T07:18:36;4.50;;;2.45;;
54881;SDS011;40775;51.448;4.742;2023-04-15T07:21:04;6.00;;;2.85;;
54881;SDS011;40775;51.448;4.742;2023-04-15T07:23:31;8.10;;;3.17;;
54881;SDS011;40775;51.448;4.742;2023-04-15T07:25:58;6.20;;;3.00;;
54881;SDS011;40775;51.448;4.742;2023-04-15T07:28:25;5.72;;;2.50;;
54881;SDS011;40775;51.448;4.742;2023-04-15T07:30:52;6.25;;;2.70;;
54881;SDS011;40775;51.448;4.742;2023-04-15T07:33:20;5.07;;;2.35;;
54881;SDS011;40775;51.448;4.742;2023-04-15T07:35:47;5.68;;;2.85;;
54881;SDS011;40775;51.448;4.742;2023-04-15T07:38:15;7.43;;;2.45;;
54881;SDS011;40775;51.448;4.742;2023-04-15T07:40:42;3.63;;;2.42;;
54881;SDS011;40775;51.448;4.742;2023-04-15T07:43:09;0.98;;;0.43;;
54881;SDS011;40775;51.448;4.742;2023-04-15T07:45:36;6.95;;;3.00;;
54881;SDS011;40775;51.448;4.742;2023-04-15T07:48:04;4.40;;;2.42;;
54881;SDS011;40775;51.448;4.742;2023-04-15T07:50:31;10.18;;;2.95;;
54881;SDS011;40775;51.448;4.742;2023-04-15T07:52:58;6.30;;;2.78;;
54881;SDS011;40775;51.448;4.742;2023-04-15T07:55:25;3.78;;;2.15;;
54881;SDS011;40775;51.448;4.742;2023-04-15T07:57:53;6.68;;;2.58;;
54881;SDS011;40775;51.448;4.742;2023-04-15T08:00:20;4.03;;;2.00;;
54881;SDS011;40775;51.448;4.742;2023-04-15T08:02:48;6.45;;;2.58;;
54881;SDS011;40775;51.448;4.742;2023-04-15T08:05:15;4.25;;;2.42;;
54881;SDS011;40775;51.448;4.742;2023-04-15T08:07:42;3.60;;;1.95;;
54881;SDS011;40775;51.448;4.742;2023-04-15T08:10:10;4.93;;;2.47;;
54881;SDS011;40775;51.448;4.742;2023-04-15T08:12:37;7.35;;;2.58;;
54881;SDS011;40775;51.448;4.742;2023-04-15T08:15:05;2.13;;;0.90;;
54881;SDS011;40775;51.448;4.742;2023-04-15T08:17:33;5.25;;;1.70;;
54881;SDS011;40775;51.448;4.742;2023-04-15T08:20:02;5.00;;;2.42;;
54881;SDS011;40775;51.448;4.742;2023-04-15T08:22:31;2.35;;;1.35;;
54881;SDS011;40775;51.448;4.742;2023-04-15T08:24:58;4.32;;;1.98;;
54881;SDS011;40775;51.448;4.742;2023-04-15T08:27:25;4.10;;;1.92;;
54881;SDS011;40775;51.448;4.742;2023-04-15T08:29:52;3.67;;;1.92;;
54881;SDS011;40775;51.448;4.742;2023-04-15T08:32:19;4.72;;;2.00;;
54881;SDS011;40775;51.448;4.742;2023-04-15T08:34:46;5.40;;;1.58;;
54881;SDS011;40775;51.448;4.742;2023-04-15T08:37:13;6.78;;;2.85;;
54881;SDS011;40775;51.448;4.742;2023-04-15T08:39:40;4.20;;;1.75;;
54881;SDS011;40775;51.448;4.742;2023-04-15T08:42:16;2.90;;;1.52;;
54881;SDS011;40775;51.448;4.742;2023-04-15T08:44:46;5.43;;;2.05;;
54881;SDS011;40775;51.448;4.742;2023-04-15T08:47:14;3.60;;;2.28;;
54881;SDS011;40775;51.448;4.742;2023-04-15T08:49:47;3.63;;;2.03;;
54881;SDS011;40775;51.448;4.742;2023-04-15T08:52:19;2.80;;;1.67;;
54881;SDS011;40775;51.448;4.742;2023-04-15T08:54:46;4.72;;;2.13;;
54881;SDS011;40775;51.448;4.742;2023-04-15T08:57:14;3.42;;;1.67;;
54881;SDS011;40775;51.448;4.742;2023-04-15T08:59:41;5.00;;;2.00;;
54881;SDS011;40775;51.448;4.742;2023-04-15T09:02:09;3.22;;;1.45;;
54881;SDS011;40775;51.448;4.742;2023-04-15T09:04:37;3.47;;;2.05;;
54881;SDS011;40775;51.448;4.742;2023-04-15T09:07:04;9.98;;;2.83;;
54881;SDS011;40775;51.448;4.742;2023-04-15T09:09:31;2.85;;;1.25;;
54881;SDS011;40775;51.448;4.742;2023-04-15T09:12:00;3.65;;;1.65;;
54881;SDS011;40775;51.448;4.742;2023-04-15T09:14:27;4.47;;;2.17;;
54881;SDS011;40775;51.448;4.742;2023-04-15T09:17:03;3.17;;;1.58;;
54881;SDS011;40775;51.448;4.742;2023-04-15T09:19:30;6.85;;;3.10;;
54881;SDS011;40775;51.448;4.742;2023-04-15T09:21:59;5.30;;;2.95;;
54881;SDS011;40775;51.448;4.742;2023-04-15T09:24:37;4.43;;;2.33;;
54881;SDS011;40775;51.448;4.742;2023-04-15T09:27:07;2.95;;;1.48;;
54881;SDS011;40775;51.448;4.742;2023-04-15T09:29:34;2.78;;;1.38;;
54881;SDS011;40775;51.448;4.742;2023-04-15T09:32:12;5.47;;;2.15;;
54881;SDS011;40775;51.448;4.742;2023-04-15T09:34:41;5.47;;;1.75;;
54881;SDS011;40775;51.448;4.742;2023-04-15T09:37:09;4.53;;;1.85;;
54881;SDS011;40775;51.448;4.742;2023-04-15T09:42:17;2.88;;;1.27;;
54881;SDS011;40775;51.448;4.742;2023-04-15T09:44:52;3.40;;;1.10;;
54881;SDS011;40775;51.448;4.742;2023-04-15T09:47:26;6.10;;;1.65;;
54881;SDS011;40775;51.448;4.742;2023-04-15T09:49:58;6.53;;;2.13;;
54881;SDS011;40775;51.448;4.742;2023-04-15T09:52:26;3.10;;;1.55;;
54881;SDS011;40775;51.448;4.742;2023-04-15T09:54:55;0.65;;;0.45;;
54881;SDS011;40775;51.448;4.742;2023-04-15T09:57:24;5.63;;;1.85;;
54881;SDS011;40775;51.448;4.742;2023-04-15T09:59:59;2.38;;;1.13;;
54881;SDS011;40775;51.448;4.742;2023-04-15T10:02:26;5.20;;;2.08;;
54881;SDS011;40775;51.448;4.742;2023-04-15T10:04:55;3.20;;;1.65;;
54881;SDS011;40775;51.448;4.742;2023-04-15T10:07:22;1.52;;;0.93;;
54881;SDS011;40775;51.448;4.742;2023-04-15T10:09:52;3.33;;;1.77;;
54881;SDS011;40775;51.448;4.742;2023-04-15T10:12:20;2.10;;;1.23;;
54881;SDS011;40775;51.448;4.742;2023-04-15T10:14:52;3.78;;;1.23;;
54881;SDS011;40775;51.448;4.742;2023-04-15T10:17:25;0.77;;;0.60;;
54881;SDS011;40775;51.448;4.742;2023-04-15T10:20:01;1.95;;;1.00;;
54881;SDS011;40775;51.448;4.742;2023-04-15T10:22:30;2.90;;;1.48;;
54881;SDS011;40775;51.448;4.742;2023-04-15T10:24:58;2.85;;;1.27;;
54881;SDS011;40775;51.448;4.742;2023-04-15T10:27:29;3.63;;;1.90;;
54881;SDS011;40775;51.448;4.742;2023-04-15T10:29:57;5.57;;;1.80;;
54881;SDS011;40775;51.448;4.742;2023-04-15T10:32:27;2.95;;;1.63;;
54881;SDS011;40775;51.448;4.742;2023-04-15T10:34:54;2.72;;;0.88;;
54881;SDS011;40775;51.448;4.742;2023-04-15T10:37:36;2.30;;;1.15;;
54881;SDS011;40775;51.448;4.742;2023-04-15T10:42:57;1.38;;;0.73;;
54881;SDS011;40775;51.448;4.742;2023-04-15T10:45:35;1.77;;;0.75;;
54881;SDS011;40775;51.448;4.742;2023-04-15T10:48:03;0.38;;;0.30;;
54881;SDS011;40775;51.448;4.742;2023-04-15T10:50:33;1.73;;;0.47;;
54881;SDS011;40775;51.448;4.742;2023-04-15T10:53:02;1.77;;;0.65;;
54881;SDS011;40775;51.448;4.742;2023-04-15T10:55:31;0.43;;;0.32;;
54881;SDS011;40775;51.448;4.742;2023-04-15T10:58:00;1.27;;;0.73;;
54881;SDS011;40775;51.448;4.742;2023-04-15T11:00:31;1.65;;;0.63;;
54881;SDS011;40775;51.448;4.742;2023-04-15T11:03:06;3.35;;;1.52;;
54881;SDS011;40775;51.448;4.742;2023-04-15T11:08:08;1.52;;;0.50;;
54881;SDS011;40775;51.448;4.742;2023-04-15T11:13:04;1.80;;;1.02;;
54881;SDS011;40775;51.448;4.742;2023-04-15T11:15:43;2.53;;;1.17;;
54881;SDS011;40775;51.448;4.742;2023-04-15T11:18:19;3.95;;;1.15;;
54881;SDS011;40775;51.448;4.742;2023-04-15T11:20:54;2.42;;;1.25;;
54881;SDS011;40775;51.448;4.742;2023-04-15T11:23:34;3.20;;;1.02;;
54881;SDS011;40775;51.448;4.742;2023-04-15T11:26:12;0.57;;;0.20;;
54881;SDS011;40775;51.448;4.742;2023-04-15T11:28:40;0.68;;;0.45;;
54881;SDS011;40775;51.448;4.742;2023-04-15T11:31:13;1.40;;;0.80;;
54881;SDS011;40775;51.448;4.742;2023-04-15T11:33:44;0.65;;;0.40;;
54881;SDS011;40775;51.448;4.742;2023-04-15T11:36:24;1.55;;;0.45;;
54881;SDS011;40775;51.448;4.742;2023-04-15T11:38:53;1.77;;;0.75;;
54881;SDS011;40775;51.448;4.742;2023-04-15T11:41:21;1.38;;;0.55;;
54881;SDS011;40775;51.448;4.742;2023-04-15T11:43:49;2.33;;;1.10;;
54881;SDS011;40775;51.448;4.742;2023-04-15T11:46:17;2.55;;;1.17;;
54881;SDS011;40775;51.448;4.742;2023-04-15T11:48:46;1.90;;;0.85;;
54881;SDS011;40775;51.448;4.742;2023-04-15T11:51:13;2.53;;;0.70;;
54881;SDS011;40775;51.448;4.742;2023-04-15T11:53:44;1.00;;;0.40;;
54881;SDS011;40775;51.448;4.742;2023-04-15T11:56:17;2.55;;;0.63;;
54881;SDS011;40775;51.448;4.742;2023-04-15T11:58:52;2.05;;;0.73;;
54881;SDS011;40775;51.448;4.742;2023-04-15T12:01:31;2.03;;;0.63;;
54881;SDS011;40775;51.448;4.742;2023-04-15T12:04:14;2.08;;;0.90;;
54881;SDS011;40775;51.448;4.742;2023-04-15T12:06:50;3.13;;;0.68;;
54881;SDS011;40775;51.448;4.742;2023-04-15T12:09:17;1.10;;;0.50;;
54881;SDS011;40775;51.448;4.742;2023-04-15T12:11:49;1.20;;;0.50;;
54881;SDS011;40775;51.448;4.742;2023-04-15T12:14:28;1.67;;;0.35;;
54881;SDS011;40775;51.448;4.742;2023-04-15T12:16:58;1.88;;;0.65;;
54881;SDS011;40775;51.448;4.742;2023-04-15T12:19:34;2.08;;;1.23;;
54881;SDS011;40775;51.448;4.742;2023-04-15T12:22:11;0.40;;;0.20;;
54881;SDS011;40775;51.448;4.742;2023-04-15T12:24:43;1.42;;;0.50;;
54881;SDS011;40775;51.448;4.742;2023-04-15T12:27:14;1.67;;;0.40;;
54881;SDS011;40775;51.448;4.742;2023-04-15T12:29:42;1.52;;;0.80;;
54881;SDS011;40775;51.448;4.742;2023-04-15T12:32:16;1.15;;;0.43;;
54881;SDS011;40775;51.448;4.742;2023-04-15T12:34:50;2.50;;;0.70;;
54881;SDS011;40775;51.448;4.742;2023-04-15T12:37:19;1.25;;;0.45;;
54881;SDS011;40775;51.448;4.742;2023-04-15T12:39:47;1.35;;;0.50;;
54881;SDS011;40775;51.448;4.742;2023-04-15T12:42:15;0.22;;;0.22;;
54881;SDS011;40775;51.448;4.742;2023-04-15T12:44:43;0.77;;;0.22;;
54881;SDS011;40775;51.448;4.742;2023-04-15T12:47:10;1.33;;;0.50;;
54881;SDS011;40775;51.448;4.742;2023-04-15T12:49:38;0.73;;;0.43;;
54881;SDS011;40775;51.448;4.742;2023-04-15T12:52:06;2.20;;;0.70;;
54881;SDS011;40775;51.448;4.742;2023-04-15T12:54:33;2.15;;;0.95;;
54881;SDS011;40775;51.448;4.742;2023-04-15T12:57:01;2.50;;;0.95;;
54881;SDS011;40775;51.448;4.742;2023-04-15T12:59:32;0.80;;;0.40;;
54881;SDS011;40775;51.448;4.742;2023-04-15T13:02:00;3.53;;;1.08;;
54881;SDS011;40775;51.448;4.742;2023-04-15T13:04:28;4.53;;;0.70;;
54881;SDS011;40775;51.448;4.742;2023-04-15T13:06:56;0.68;;;0.28;;
54881;SDS011;40775;51.448;4.742;2023-04-15T13:09:24;1.00;;;0.82;;
54881;SDS011;40775;51.448;4.742;2023-04-15T13:11:51;0.28;;;0.20;;
54881;SDS011;40775;51.448;4.742;2023-04-15T13:14:19;1.55;;;0.35;;
54881;SDS011;40775;51.448;4.742;2023-04-15T13:16:46;1.48;;;0.28;;
54881;SDS011;40775;51.448;4.742;2023-04-15T13:19:13;1.52;;;0.57;;
54881;SDS011;40775;51.448;4.742;2023-04-15T13:21:41;0.85;;;0.40;;
54881;SDS011;40775;51.448;4.742;2023-04-15T13:24:08;1.35;;;0.57;;
54881;SDS011;40775;51.448;4.742;2023-04-15T13:26:35;1.05;;;0.57;;
54881;SDS011;40775;51.448;4.742;2023-04-15T13:29:03;1.42;;;0.68;;
54881;SDS011;40775;51.448;4.742;2023-04-15T13:31:30;0.57;;;0.25;;
54881;SDS011;40775;51.448;4.742;2023-04-15T13:33:57;1.25;;;0.30;;
54881;SDS011;40775;51.448;4.742;2023-04-15T13:36:24;2.88;;;0.40;;
54881;SDS011;40775;51.448;4.742;2023-04-15T13:38:52;0.77;;;0.47;;
54881;SDS011;40775;51.448;4.742;2023-04-15T13:41:19;2.10;;;1.13;;
54881;SDS011;40775;51.448;4.742;2023-04-15T13:43:47;0.95;;;0.43;;
54881;SDS011;40775;51.448;4.742;2023-04-15T13:46:14;2.75;;;0.50;;
54881;SDS011;40775;51.448;4.742;2023-04-15T13:48:41;2.80;;;0.88;;
54881;SDS011;40775;51.448;4.742;2023-04-15T13:51:08;1.45;;;0.65;;
54881;SDS011;40775;51.448;4.742;2023-04-15T13:53:35;0.45;;;0.38;;
54881;SDS011;40775;51.448;4.742;2023-04-15T13:56:07;1.05;;;0.40;;
54881;SDS011;40775;51.448;4.742;2023-04-15T13:58:36;1.10;;;0.47;;
54881;SDS011;40775;51.448;4.742;2023-04-15T14:01:03;1.40;;;0.40;;
54881;SDS011;40775;51.448;4.742;2023-04-15T14:03:35;1.83;;;0.65;;
54881;SDS011;40775;51.448;4.742;2023-04-15T14:06:04;0.98;;;0.50;;
54881;SDS011;40775;51.448;4.742;2023-04-15T14:08:31;0.93;;;0.25;;
54881;SDS011;40775;51.448;4.742;2023-04-15T14:10:59;1.30;;;0.40;;
54881;SDS011;40775;51.448;4.742;2023-04-15T14:13:26;1.63;;;0.65;;
54881;SDS011;40775;51.448;4.742;2023-04-15T14:15:53;0.40;;;0.20;;
54881;SDS011;40775;51.448;4.742;2023-04-15T14:18:21;0.30;;;0.17;;
54881;SDS011;40775;51.448;4.742;2023-04-15T14:20:48;0.68;;;0.30;;
54881;SDS011;40775;51.448;4.742;2023-04-15T14:23:15;0.22;;;0.20;;
54881;SDS011;40775;51.448;4.742;2023-04-15T14:25:42;0.32;;;0.22;;
54881;SDS011;40775;51.448;4.742;2023-04-15T14:28:13;1.70;;;0.93;;
54881;SDS011;40775;51.448;4.742;2023-04-15T14:30:41;0.85;;;0.40;;
54881;SDS011;40775;51.448;4.742;2023-04-15T14:33:08;0.35;;;0.28;;
54881;SDS011;40775;51.448;4.742;2023-04-15T14:35:35;0.77;;;0.40;;
54881;SDS011;40775;51.448;4.742;2023-04-15T14:38:03;2.00;;;0.80;;
54881;SDS011;40775;51.448;4.742;2023-04-15T14:40:32;0.15;;;0.10;;
54881;SDS011;40775;51.448;4.742;2023-04-15T14:42:59;1.58;;;0.77;;
54881;SDS011;40775;51.448;4.742;2023-04-15T14:45:26;2.42;;;1.02;;
54881;SDS011;40775;51.448;4.742;2023-04-15T14:47:53;0.85;;;0.50;;
54881;SDS011;40775;51.448;4.742;2023-04-15T14:50:20;0.40;;;0.30;;
54881;SDS011;40775;51.448;4.742;2023-04-15T14:52:47;4.07;;;0.80;;
54881;SDS011;40775;51.448;4.742;2023-04-15T14:55:14;1.35;;;0.40;;
54881;SDS011;40775;51.448;4.742;2023-04-15T14:57:41;1.00;;;0.30;;
54881;SDS011;40775;51.448;4.742;2023-04-15T15:00:09;1.10;;;0.40;;
54881;SDS011;40775;51.448;4.742;2023-04-15T15:02:41;1.42;;;0.70;;
54881;SDS011;40775;51.448;4.742;2023-04-15T15:05:09;1.88;;;0.70;;